sensor_id;sensor_type;location;lat;lon;timestamp;P1;P2;P0
62591;PMS5003;48659;41.622;2.276;2023-07-28T00:00:34;4;3;
62591;PMS5003;48659;41.622;2.276;2023-07-28T00:03:03;4;4;
62591;PMS5003;48659;41.622;2.276;2023-07-28T00:05:31;5;4;
62591;PMS5003;48659;41.622;2.276;2023-07-28T00:08:03;3;3;
62591;PMS5003;48659;41.622;2.276;2023-07-28T00:10:39;4;4;
62591;PMS5003;48659;41.622;2.276;2023-07-28T00:13:08;5;3;
62591;PMS5003;48659;41.622;2.276;2023-07-28T00:15:36;2;2;
62591;PMS5003;48659;41.622;2.276;2023-07-28T00:18:03;4;4;
62591;PMS5003;48659;41.622;2.276;2023-07-28T00:20:31;4;4;
62591;PMS5003;48659;41.622;2.276;2023-07-28T00:22:59;4;4;
62591;PMS5003;48659;41.622;2.276;2023-07-28T00:25:27;4;4;
62591;PMS5003;48659;41.622;2.276;2023-07-28T00:28:02;3;3;
62591;PMS5003;48659;41.622;2.276;2023-07-28T00:30:30;3;3;
62591;PMS5003;48659;41.622;2.276;2023-07-28T00:33:03;3;3;
62591;PMS5003;48659;41.622;2.276;2023-07-28T00:35:31;6;5;
62591;PMS5003;48659;41.622;2.276;2023-07-28T00:37:59;4;4;
62591;PMS5003;48659;41.622;2.276;2023-07-28T00:40:27;5;4;
62591;PMS5003;48659;41.622;2.276;2023-07-28T00:43:03;2;2;
62591;PMS5003;48659;41.622;2.276;2023-07-28T00:45:31;4;4;
62591;PMS5003;48659;41.622;2.276;2023-07-28T00:48:01;5;3;
62591;PMS5003;48659;41.622;2.276;2023-07-28T00:50:31;6;4;
62591;PMS5003;48659;41.622;2.276;2023-07-28T00:52:58;4;4;
62591;PMS5003;48659;41.622;2.276;2023-07-28T00:55:26;4;3;
62591;PMS5003;48659;41.622;2.276;2023-07-28T00:57:54;4;4;
62591;PMS5003;48659;41.622;2.276;2023-07-28T01:00:23;5;5;
62591;PMS5003;48659;41.622;2.276;2023-07-28T01:02:50;3;3;
62591;PMS5003;48659;41.622;2.276;2023-07-28T01:05:18;3;3;
62591;PMS5003;48659;41.622;2.276;2023-07-28T01:07:51;5;5;
62591;PMS5003;48659;41.622;2.276;2023-07-28T01:10:37;4;4;
62591;PMS5003;48659;41.622;2.276;2023-07-28T01:13:06;4;3;
62591;PMS5003;48659;41.622;2.276;2023-07-28T01:15:34;2;2;
62591;PMS5003;48659;41.622;2.276;2023-07-28T01:18:02;3;3;
62591;PMS5003;48659;41.622;2.276;2023-07-28T01:20:30;4;4;
62591;PMS5003;48659;41.622;2.276;2023-07-28T01:23:05;3;3;
62591;PMS5003;48659;41.622;2.276;2023-07-28T01:25:46;3;3;
62591;PMS5003;48659;41.622;2.276;2023-07-28T01:28:29;4;3;
62591;PMS5003;48659;41.622;2.276;2023-07-28T01:31:04;8;5;
62591;PMS5003;48659;41.622;2.276;2023-07-28T01:33:33;4;4;
62591;PMS5003;48659;41.622;2.276;2023-07-28T01:36:03;4;4;
62591;PMS5003;48659;41.622;2.276;2023-07-28T01:38:32;6;5;
62591;PMS5003;48659;41.622;2.276;2023-07-28T01:41:00;3;3;
62591;PMS5003;48659;41.622;2.276;2023-07-28T01:43:27;3;3;
62591;PMS5003;48659;41.622;2.276;2023-07-28T01:45:55;5;5;
62591;PMS5003;48659;41.622;2.276;2023-07-28T01:48:23;5;5;
62591;PMS5003;48659;41.622;2.276;2023-07-28T01:50:51;4;2;
62591;PMS5003;48659;41.622;2.276;2023-07-28T01:53:19;5;4;
62591;PMS5003;48659;41.622;2.276;2023-07-28T01:55:47;5;4;
62591;PMS5003;48659;41.622;2.276;2023-07-28T01:58:14;3;3;
62591;PMS5003;48659;41.622;2.276;2023-07-28T02:00:42;3;3;
62591;PMS5003;48659;41.622;2.276;2023-07-28T02:03:10;5;3;
62591;PMS5003;48659;41.622;2.276;2023-07-28T02:05:37;5;5;
62591;PMS5003;48659;41.622;2.276;2023-07-28T02:08:04;6;5;
62591;PMS5003;48659;41.622;2.276;2023-07-28T02:10:32;4;2;
62591;PMS5003;48659;41.622;2.276;2023-07-28T02:13:03;5;3;
62591;PMS5003;48659;41.622;2.276;2023-07-28T02:15:32;4;4;
62591;PMS5003;48659;41.622;2.276;2023-07-28T02:18:02;5;5;
62591;PMS5003;48659;41.622;2.276;2023-07-28T02:20:30;5;4;
62591;PMS5003;48659;41.622;2.276;2023-07-28T02:22:58;4;4;
62591;PMS5003;48659;41.622;2.276;2023-07-28T02:25:25;5;5;
62591;PMS5003;48659;41.622;2.276;2023-07-28T02:27:54;5;4;
62591;PMS5003;48659;41.622;2.276;2023-07-28T02:30:22;4;4;
62591;PMS5003;48659;41.622;2.276;2023-07-28T02:32:49;4;4;
62591;PMS5003;48659;41.622;2.276;2023-07-28T02:35:17;6;4;
62591;PMS5003;48659;41.622;2.276;2023-07-28T02:41:06;7;6;
62591;PMS5003;48659;41.622;2.276;2023-07-28T02:43:33;6;6;
62591;PMS5003;48659;41.622;2.276;2023-07-28T02:46:06;7;5;
62591;PMS5003;48659;41.622;2.276;2023-07-28T02:48:35;7;6;
62591;PMS5003;48659;41.622;2.276;2023-07-28T02:51:02;4;4;
62591;PMS5003;48659;41.622;2.276;2023-07-28T02:53:30;4;3;
62591;PMS5003;48659;41.622;2.276;2023-07-28T02:56:05;4;4;
62591;PMS5003;48659;41.622;2.276;2023-07-28T02:58:33;3;3;
62591;PMS5003;48659;41.622;2.276;2023-07-28T03:01:06;5;4;
62591;PMS5003;48659;41.622;2.276;2023-07-28T03:03:33;3;3;
62591;PMS5003;48659;41.622;2.276;2023-07-28T03:06:06;4;4;
62591;PMS5003;48659;41.622;2.276;2023-07-28T03:08:34;5;5;
62591;PMS5003;48659;41.622;2.276;2023-07-28T03:11:07;6;6;
62591;PMS5003;48659;41.622;2.276;2023-07-28T03:13:34;6;4;
62591;PMS5003;48659;41.622;2.276;2023-07-28T03:16:06;6;6;
62591;PMS5003;48659;41.622;2.276;2023-07-28T03:18:33;8;8;
62591;PMS5003;48659;41.622;2.276;2023-07-28T03:21:01;7;6;
62591;PMS5003;48659;41.622;2.276;2023-07-28T03:23:28;10;7;
62591;PMS5003;48659;41.622;2.276;2023-07-28T03:25:57;8;7;
62591;PMS5003;48659;41.622;2.276;2023-07-28T03:28:25;4;4;
62591;PMS5003;48659;41.622;2.276;2023-07-28T03:30:52;6;6;
62591;PMS5003;48659;41.622;2.276;2023-07-28T03:33:20;7;6;
62591;PMS5003;48659;41.622;2.276;2023-07-28T03:35:48;6;6;
62591;PMS5003;48659;41.622;2.276;2023-07-28T03:38:16;2;2;
62591;PMS5003;48659;41.622;2.276;2023-07-28T03:40:43;5;5;
62591;PMS5003;48659;41.622;2.276;2023-07-28T03:43:11;6;6;
62591;PMS5003;48659;41.622;2.276;2023-07-28T03:45:39;6;6;
62591;PMS5003;48659;41.622;2.276;2023-07-28T03:48:06;4;4;
62591;PMS5003;48659;41.622;2.276;2023-07-28T03:50:34;6;6;
62591;PMS5003;48659;41.622;2.276;2023-07-28T03:53:07;6;6;
62591;PMS5003;48659;41.622;2.276;2023-07-28T03:55:35;6;5;
62591;PMS5003;48659;41.622;2.276;2023-07-28T03:58:07;10;6;
62591;PMS5003;48659;41.622;2.276;2023-07-28T04:00:35;8;8;
62591;PMS5003;48659;41.622;2.276;2023-07-28T04:03:07;7;7;
62591;PMS5003;48659;41.622;2.276;2023-07-28T04:05:36;6;6;
62591;PMS5003;48659;41.622;2.276;2023-07-28T04:08:05;6;6;
62591;PMS5003;48659;41.622;2.276;2023-07-28T04:10:34;8;7;
62591;PMS5003;48659;41.622;2.276;2023-07-28T04:13:06;8;7;
62591;PMS5003;48659;41.622;2.276;2023-07-28T04:15:33;7;7;
62591;PMS5003;48659;41.622;2.276;2023-07-28T04:18:07;4;4;
62591;PMS5003;48659;41.622;2.276;2023-07-28T04:20:35;6;6;
62591;PMS5003;48659;41.622;2.276;2023-07-28T04:23:02;5;5;
62591;PMS5003;48659;41.622;2.276;2023-07-28T04:25:30;8;7;
62591;PMS5003;48659;41.622;2.276;2023-07-28T04:28:06;7;7;
62591;PMS5003;48659;41.622;2.276;2023-07-28T04:30:34;6;6;
62591;PMS5003;48659;41.622;2.276;2023-07-28T04:33:07;9;9;
62591;PMS5003;48659;41.622;2.276;2023-07-28T04:35:34;11;11;
62591;PMS5003;48659;41.622;2.276;2023-07-28T04:38:07;7;7;
62591;PMS5003;48659;41.622;2.276;2023-07-28T04:40:35;9;9;
62591;PMS5003;48659;41.622;2.276;2023-07-28T04:43:06;9;6;
62591;PMS5003;48659;41.622;2.276;2023-07-28T04:45:33;12;9;
62591;PMS5003;48659;41.622;2.276;2023-07-28T04:48:07;12;11;
62591;PMS5003;48659;41.622;2.276;2023-07-28T04:50:35;10;9;
62591;PMS5003;48659;41.622;2.276;2023-07-28T04:53:03;10;10;
62591;PMS5003;48659;41.622;2.276;2023-07-28T04:55:31;10;9;
62591;PMS5003;48659;41.622;2.276;2023-07-28T04:58:06;12;10;
62591;PMS5003;48659;41.622;2.276;2023-07-28T05:00:33;10;9;
62591;PMS5003;48659;41.622;2.276;2023-07-28T05:03:06;9;9;
62591;PMS5003;48659;41.622;2.276;2023-07-28T05:05:34;13;8;
62591;PMS5003;48659;41.622;2.276;2023-07-28T05:08:01;13;13;
62591;PMS5003;48659;41.622;2.276;2023-07-28T05:10:29;11;10;
62591;PMS5003;48659;41.622;2.276;2023-07-28T05:13:06;16;14;
62591;PMS5003;48659;41.622;2.276;2023-07-28T05:15:34;11;11;
62591;PMS5003;48659;41.622;2.276;2023-07-28T05:18:02;10;10;
62591;PMS5003;48659;41.622;2.276;2023-07-28T05:20:30;12;12;
62591;PMS5003;48659;41.622;2.276;2023-07-28T05:23:06;12;11;
62591;PMS5003;48659;41.622;2.276;2023-07-28T05:25:34;10;10;
62591;PMS5003;48659;41.622;2.276;2023-07-28T05:28:02;10;10;
62591;PMS5003;48659;41.622;2.276;2023-07-28T05:30:29;14;11;
62591;PMS5003;48659;41.622;2.276;2023-07-28T05:32:57;11;9;
62591;PMS5003;48659;41.622;2.276;2023-07-28T05:35:26;11;11;
62591;PMS5003;48659;41.622;2.276;2023-07-28T05:37:53;12;12;
62591;PMS5003;48659;41.622;2.276;2023-07-28T05:40:20;14;11;
62591;PMS5003;48659;41.622;2.276;2023-07-28T05:42:48;13;12;
62591;PMS5003;48659;41.622;2.276;2023-07-28T05:45:16;11;11;
62591;PMS5003;48659;41.622;2.276;2023-07-28T05:47:44;9;9;
62591;PMS5003;48659;41.622;2.276;2023-07-28T05:50:16;11;10;
62591;PMS5003;48659;41.622;2.276;2023-07-28T05:52:44;11;11;
62591;PMS5003;48659;41.622;2.276;2023-07-28T05:55:11;11;10;
62591;PMS5003;48659;41.622;2.276;2023-07-28T05:57:38;11;11;
62591;PMS5003;48659;41.622;2.276;2023-07-28T06:00:06;10;10;
62591;PMS5003;48659;41.622;2.276;2023-07-28T06:02:34;11;11;
62591;PMS5003;48659;41.622;2.276;2023-07-28T06:05:08;14;13;
62591;PMS5003;48659;41.622;2.276;2023-07-28T06:07:38;11;11;
62591;PMS5003;48659;41.622;2.276;2023-07-28T06:10:15;8;8;
62591;PMS5003;48659;41.622;2.276;2023-07-28T06:12:43;14;12;
62591;PMS5003;48659;41.622;2.276;2023-07-28T06:15:10;13;11;
62591;PMS5003;48659;41.622;2.276;2023-07-28T06:17:38;16;12;
62591;PMS5003;48659;41.622;2.276;2023-07-28T06:20:06;10;10;
62591;PMS5003;48659;41.622;2.276;2023-07-28T06:22:34;17;12;
62591;PMS5003;48659;41.622;2.276;2023-07-28T06:25:06;15;11;
62591;PMS5003;48659;41.622;2.276;2023-07-28T06:27:34;11;11;
62591;PMS5003;48659;41.622;2.276;2023-07-28T06:30:02;11;11;
62591;PMS5003;48659;41.622;2.276;2023-07-28T06:32:30;13;11;
62591;PMS5003;48659;41.622;2.276;2023-07-28T06:35:05;11;11;
62591;PMS5003;48659;41.622;2.276;2023-07-28T06:37:34;8;8;
62591;PMS5003;48659;41.622;2.276;2023-07-28T06:40:03;7;7;
62591;PMS5003;48659;41.622;2.276;2023-07-28T06:42:32;7;7;
62591;PMS5003;48659;41.622;2.276;2023-07-28T06:45:10;8;8;
62591;PMS5003;48659;41.622;2.276;2023-07-28T06:47:37;5;5;
62591;PMS5003;48659;41.622;2.276;2023-07-28T06:50:10;6;6;
62591;PMS5003;48659;41.622;2.276;2023-07-28T06:52:38;10;7;
62591;PMS5003;48659;41.622;2.276;2023-07-28T06:55:06;5;5;
62591;PMS5003;48659;41.622;2.276;2023-07-28T06:57:34;6;6;
62591;PMS5003;48659;41.622;2.276;2023-07-28T07:00:16;3;3;
62591;PMS5003;48659;41.622;2.276;2023-07-28T07:02:44;9;6;
62591;PMS5003;48659;41.622;2.276;2023-07-28T07:05:12;7;7;
62591;PMS5003;48659;41.622;2.276;2023-07-28T07:07:40;7;7;
62591;PMS5003;48659;41.622;2.276;2023-07-28T07:10:16;6;6;
62591;PMS5003;48659;41.622;2.276;2023-07-28T07:12:43;5;5;
62591;PMS5003;48659;41.622;2.276;2023-07-28T07:15:11;7;5;
62591;PMS5003;48659;41.622;2.276;2023-07-28T07:17:39;5;5;
62591;PMS5003;48659;41.622;2.276;2023-07-28T07:20:07;8;7;
62591;PMS5003;48659;41.622;2.276;2023-07-28T07:22:35;5;5;
62591;PMS5003;48659;41.622;2.276;2023-07-28T07:25:03;6;6;
62591;PMS5003;48659;41.622;2.276;2023-07-28T07:27:31;7;6;
62591;PMS5003;48659;41.622;2.276;2023-07-28T07:30:15;4;4;
62591;PMS5003;48659;41.622;2.276;2023-07-28T07:32:43;5;5;
62591;PMS5003;48659;41.622;2.276;2023-07-28T07:35:11;6;6;
62591;PMS5003;48659;41.622;2.276;2023-07-28T07:37:39;7;6;
62591;PMS5003;48659;41.622;2.276;2023-07-28T07:40:07;6;5;
62591;PMS5003;48659;41.622;2.276;2023-07-28T07:42:44;5;5;
62591;PMS5003;48659;41.622;2.276;2023-07-28T07:45:13;8;6;
62591;PMS5003;48659;41.622;2.276;2023-07-28T07:47:42;4;4;
62591;PMS5003;48659;41.622;2.276;2023-07-28T07:50:10;12;11;
62591;PMS5003;48659;41.622;2.276;2023-07-28T07:52:38;5;5;
62591;PMS5003;48659;41.622;2.276;2023-07-28T07:55:05;7;7;
62591;PMS5003;48659;41.622;2.276;2023-07-28T07:57:36;5;5;
62591;PMS5003;48659;41.622;2.276;2023-07-28T08:00:16;5;5;
62591;PMS5003;48659;41.622;2.276;2023-07-28T08:02:44;6;5;
62591;PMS5003;48659;41.622;2.276;2023-07-28T08:05:12;8;5;
62591;PMS5003;48659;41.622;2.276;2023-07-28T08:07:40;6;4;
62591;PMS5003;48659;41.622;2.276;2023-07-28T08:10:15;4;4;
62591;PMS5003;48659;41.622;2.276;2023-07-28T08:12:43;5;5;
62591;PMS5003;48659;41.622;2.276;2023-07-28T08:15:11;5;5;
62591;PMS5003;48659;41.622;2.276;2023-07-28T08:17:38;6;4;
62591;PMS5003;48659;41.622;2.276;2023-07-28T08:20:06;8;6;
62591;PMS5003;48659;41.622;2.276;2023-07-28T08:22:34;11;8;
62591;PMS5003;48659;41.622;2.276;2023-07-28T08:25:06;8;8;
62591;PMS5003;48659;41.622;2.276;2023-07-28T08:27:33;7;6;
62591;PMS5003;48659;41.622;2.276;2023-07-28T08:30:01;8;8;
62591;PMS5003;48659;41.622;2.276;2023-07-28T08:32:28;9;9;
62591;PMS5003;48659;41.622;2.276;2023-07-28T08:34:56;7;7;
62591;PMS5003;48659;41.622;2.276;2023-07-28T08:37:25;8;5;
62591;PMS5003;48659;41.622;2.276;2023-07-28T08:39:54;6;6;
62591;PMS5003;48659;41.622;2.276;2023-07-28T08:42:22;8;5;
62591;PMS5003;48659;41.622;2.276;2023-07-28T08:44:49;7;5;
62591;PMS5003;48659;41.622;2.276;2023-07-28T08:47:17;5;5;
62591;PMS5003;48659;41.622;2.276;2023-07-28T08:49:45;5;5;
62591;PMS5003;48659;41.622;2.276;2023-07-28T08:52:15;6;6;
62591;PMS5003;48659;41.622;2.276;2023-07-28T08:54:43;5;5;
62591;PMS5003;48659;41.622;2.276;2023-07-28T08:57:11;7;6;
62591;PMS5003;48659;41.622;2.276;2023-07-28T08:59:40;5;5;
62591;PMS5003;48659;41.622;2.276;2023-07-28T09:02:08;7;7;
62591;PMS5003;48659;41.622;2.276;2023-07-28T09:04:37;5;5;
62591;PMS5003;48659;41.622;2.276;2023-07-28T09:07:04;6;6;
62591;PMS5003;48659;41.622;2.276;2023-07-28T09:09:32;8;6;
62591;PMS5003;48659;41.622;2.276;2023-07-28T09:12:00;7;7;
62591;PMS5003;48659;41.622;2.276;2023-07-28T09:14:28;7;6;
62591;PMS5003;48659;41.622;2.276;2023-07-28T09:16:56;5;5;
62591;PMS5003;48659;41.622;2.276;2023-07-28T09:19:33;5;5;
62591;PMS5003;48659;41.622;2.276;2023-07-28T09:22:01;9;8;
62591;PMS5003;48659;41.622;2.276;2023-07-28T09:24:30;6;6;
62591;PMS5003;48659;41.622;2.276;2023-07-28T09:26:59;6;6;
62591;PMS5003;48659;41.622;2.276;2023-07-28T09:29:27;7;7;
62591;PMS5003;48659;41.622;2.276;2023-07-28T09:32:12;10;7;
62591;PMS5003;48659;41.622;2.276;2023-07-28T09:34:39;6;6;
62591;PMS5003;48659;41.622;2.276;2023-07-28T09:37:06;6;5;
62591;PMS5003;48659;41.622;2.276;2023-07-28T09:39:36;11;10;
62591;PMS5003;48659;41.622;2.276;2023-07-28T09:42:07;14;13;
62591;PMS5003;48659;41.622;2.276;2023-07-28T09:44:35;5;5;
62591;PMS5003;48659;41.622;2.276;2023-07-28T09:47:07;6;6;
62591;PMS5003;48659;41.622;2.276;2023-07-28T09:49:36;7;6;
62591;PMS5003;48659;41.622;2.276;2023-07-28T09:52:08;6;6;
62591;PMS5003;48659;41.622;2.276;2023-07-28T09:54:38;7;7;
62591;PMS5003;48659;41.622;2.276;2023-07-28T09:57:08;5;5;
62591;PMS5003;48659;41.622;2.276;2023-07-28T09:59:39;7;6;
62591;PMS5003;48659;41.622;2.276;2023-07-28T10:02:08;6;5;
62591;PMS5003;48659;41.622;2.276;2023-07-28T10:04:35;6;4;
62591;PMS5003;48659;41.622;2.276;2023-07-28T10:07:04;6;5;
62591;PMS5003;48659;41.622;2.276;2023-07-28T10:09:33;5;5;
62591;PMS5003;48659;41.622;2.276;2023-07-28T10:12:01;8;6;
62591;PMS5003;48659;41.622;2.276;2023-07-28T10:14:29;7;6;
62591;PMS5003;48659;41.622;2.276;2023-07-28T10:16:58;6;6;
62591;PMS5003;48659;41.622;2.276;2023-07-28T10:19:26;5;5;
62591;PMS5003;48659;41.622;2.276;2023-07-28T10:22:01;8;8;
62591;PMS5003;48659;41.622;2.276;2023-07-28T10:24:55;7;5;
62591;PMS5003;48659;41.622;2.276;2023-07-28T10:27:35;7;6;
62591;PMS5003;48659;41.622;2.276;2023-07-28T10:30:04;7;7;
62591;PMS5003;48659;41.622;2.276;2023-07-28T10:32:37;6;6;
62591;PMS5003;48659;41.622;2.276;2023-07-28T10:35:07;6;5;
62591;PMS5003;48659;41.622;2.276;2023-07-28T10:37:36;5;5;
62591;PMS5003;48659;41.622;2.276;2023-07-28T10:40:23;7;5;
62591;PMS5003;48659;41.622;2.276;2023-07-28T10:42:55;6;6;
62591;PMS5003;48659;41.622;2.276;2023-07-28T10:45:24;10;7;
62591;PMS5003;48659;41.622;2.276;2023-07-28T10:47:53;8;8;
62591;PMS5003;48659;41.622;2.276;2023-07-28T10:50:22;9;9;
62591;PMS5003;48659;41.622;2.276;2023-07-28T10:52:49;5;5;
62591;PMS5003;48659;41.622;2.276;2023-07-28T10:55:18;7;7;
62591;PMS5003;48659;41.622;2.276;2023-07-28T10:57:48;8;6;
62591;PMS5003;48659;41.622;2.276;2023-07-28T11:00:18;8;8;
62591;PMS5003;48659;41.622;2.276;2023-07-28T11:02:48;9;7;
62591;PMS5003;48659;41.622;2.276;2023-07-28T11:05:19;8;8;
62591;PMS5003;48659;41.622;2.276;2023-07-28T11:07:48;11;7;
62591;PMS5003;48659;41.622;2.276;2023-07-28T11:10:17;6;6;
62591;PMS5003;48659;41.622;2.276;2023-07-28T11:12:46;6;6;
62591;PMS5003;48659;41.622;2.276;2023-07-28T11:15:15;7;7;
62591;PMS5003;48659;41.622;2.276;2023-07-28T11:17:44;8;8;
62591;PMS5003;48659;41.622;2.276;2023-07-28T11:20:15;11;11;
62591;PMS5003;48659;41.622;2.276;2023-07-28T11:22:43;9;9;
62591;PMS5003;48659;41.622;2.276;2023-07-28T11:25:11;8;8;
62591;PMS5003;48659;41.622;2.276;2023-07-28T11:27:39;8;8;
62591;PMS5003;48659;41.622;2.276;2023-07-28T11:30:15;11;9;
62591;PMS5003;48659;41.622;2.276;2023-07-28T11:32:45;14;13;
62591;PMS5003;48659;41.622;2.276;2023-07-28T11:35:14;6;6;
62591;PMS5003;48659;41.622;2.276;2023-07-28T11:37:43;9;8;
62591;PMS5003;48659;41.622;2.276;2023-07-28T11:40:14;11;10;
62591;PMS5003;48659;41.622;2.276;2023-07-28T11:42:44;9;7;
62591;PMS5003;48659;41.622;2.276;2023-07-28T11:45:15;7;7;
62591;PMS5003;48659;41.622;2.276;2023-07-28T11:47:55;4;4;
62591;PMS5003;48659;41.622;2.276;2023-07-28T11:50:23;7;6;
62591;PMS5003;48659;41.622;2.276;2023-07-28T11:52:53;8;8;
62591;PMS5003;48659;41.622;2.276;2023-07-28T11:55:20;9;7;
62591;PMS5003;48659;41.622;2.276;2023-07-28T11:57:49;10;7;
62591;PMS5003;48659;41.622;2.276;2023-07-28T12:00:18;11;9;
62591;PMS5003;48659;41.622;2.276;2023-07-28T12:02:45;9;9;
62591;PMS5003;48659;41.622;2.276;2023-07-28T12:05:14;9;9;
62591;PMS5003;48659;41.622;2.276;2023-07-28T12:07:46;6;6;
62591;PMS5003;48659;41.622;2.276;2023-07-28T12:10:14;7;7;
62591;PMS5003;48659;41.622;2.276;2023-07-28T12:12:43;7;7;
62591;PMS5003;48659;41.622;2.276;2023-07-28T12:15:20;12;10;
62591;PMS5003;48659;41.622;2.276;2023-07-28T12:18:07;8;6;
62591;PMS5003;48659;41.622;2.276;2023-07-28T12:20:37;7;7;
62591;PMS5003;48659;41.622;2.276;2023-07-28T12:23:06;8;6;
62591;PMS5003;48659;41.622;2.276;2023-07-28T12:25:35;6;5;
62591;PMS5003;48659;41.622;2.276;2023-07-28T12:28:03;11;11;
62591;PMS5003;48659;41.622;2.276;2023-07-28T12:30:32;8;8;
62591;PMS5003;48659;41.622;2.276;2023-07-28T12:33:00;7;6;
62591;PMS5003;48659;41.622;2.276;2023-07-28T12:35:28;6;6;
62591;PMS5003;48659;41.622;2.276;2023-07-28T12:37:55;5;5;
62591;PMS5003;48659;41.622;2.276;2023-07-28T12:40:24;6;6;
62591;PMS5003;48659;41.622;2.276;2023-07-28T12:42:52;5;5;
62591;PMS5003;48659;41.622;2.276;2023-07-28T12:45:20;9;7;
62591;PMS5003;48659;41.622;2.276;2023-07-28T12:47:48;9;9;
62591;PMS5003;48659;41.622;2.276;2023-07-28T12:50:15;8;6;
62591;PMS5003;48659;41.622;2.276;2023-07-28T12:52:43;7;7;
62591;PMS5003;48659;41.622;2.276;2023-07-28T12:55:11;10;8;
62591;PMS5003;48659;41.622;2.276;2023-07-28T12:57:39;7;6;
62591;PMS5003;48659;41.622;2.276;2023-07-28T13:00:07;6;6;
62591;PMS5003;48659;41.622;2.276;2023-07-28T13:02:35;7;6;
62591;PMS5003;48659;41.622;2.276;2023-07-28T13:05:03;11;8;
62591;PMS5003;48659;41.622;2.276;2023-07-28T13:07:31;8;6;
62591;PMS5003;48659;41.622;2.276;2023-07-28T13:10:15;10;7;
62591;PMS5003;48659;41.622;2.276;2023-07-28T13:12:43;5;5;
62591;PMS5003;48659;41.622;2.276;2023-07-28T13:15:11;5;5;
62591;PMS5003;48659;41.622;2.276;2023-07-28T13:17:39;6;6;
62591;PMS5003;48659;41.622;2.276;2023-07-28T13:20:16;7;7;
62591;PMS5003;48659;41.622;2.276;2023-07-28T13:22:44;7;6;
62591;PMS5003;48659;41.622;2.276;2023-07-28T13:25:12;8;8;
62591;PMS5003;48659;41.622;2.276;2023-07-28T13:27:39;11;9;
62591;PMS5003;48659;41.622;2.276;2023-07-28T13:30:08;10;9;
62591;PMS5003;48659;41.622;2.276;2023-07-28T13:32:36;8;7;
62591;PMS5003;48659;41.622;2.276;2023-07-28T13:35:04;9;7;
62591;PMS5003;48659;41.622;2.276;2023-07-28T13:37:32;8;6;
62591;PMS5003;48659;41.622;2.276;2023-07-28T13:39:59;7;5;
62591;PMS5003;48659;41.622;2.276;2023-07-28T13:42:27;9;8;
62591;PMS5003;48659;41.622;2.276;2023-07-28T13:44:54;9;7;
62591;PMS5003;48659;41.622;2.276;2023-07-28T13:47:22;6;6;
62591;PMS5003;48659;41.622;2.276;2023-07-28T13:49:50;6;6;
62591;PMS5003;48659;41.622;2.276;2023-07-28T13:52:18;9;7;
62591;PMS5003;48659;41.622;2.276;2023-07-28T13:54:45;7;7;
62591;PMS5003;48659;41.622;2.276;2023-07-28T13:57:13;9;7;
62591;PMS5003;48659;41.622;2.276;2023-07-28T13:59:41;8;8;
62591;PMS5003;48659;41.622;2.276;2023-07-28T14:02:08;7;6;
62591;PMS5003;48659;41.622;2.276;2023-07-28T14:04:36;8;8;
62591;PMS5003;48659;41.622;2.276;2023-07-28T14:07:07;9;8;
62591;PMS5003;48659;41.622;2.276;2023-07-28T14:09:35;7;7;
62591;PMS5003;48659;41.622;2.276;2023-07-28T14:12:06;10;7;
62591;PMS5003;48659;41.622;2.276;2023-07-28T14:14:35;9;9;
62591;PMS5003;48659;41.622;2.276;2023-07-28T14:17:02;13;7;
62591;PMS5003;48659;41.622;2.276;2023-07-28T14:19:30;10;7;
62591;PMS5003;48659;41.622;2.276;2023-07-28T14:21:58;8;7;
62591;PMS5003;48659;41.622;2.276;2023-07-28T14:24:26;8;8;
62591;PMS5003;48659;41.622;2.276;2023-07-28T14:26:53;8;8;
62591;PMS5003;48659;41.622;2.276;2023-07-28T14:29:21;8;8;
62591;PMS5003;48659;41.622;2.276;2023-07-28T14:31:48;9;8;
62591;PMS5003;48659;41.622;2.276;2023-07-28T14:34:16;10;8;
62591;PMS5003;48659;41.622;2.276;2023-07-28T14:36:44;8;8;
62591;PMS5003;48659;41.622;2.276;2023-07-28T14:39:11;11;10;
62591;PMS5003;48659;41.622;2.276;2023-07-28T14:41:39;13;8;
62591;PMS5003;48659;41.622;2.276;2023-07-28T14:44:07;7;7;
62591;PMS5003;48659;41.622;2.276;2023-07-28T14:46:34;6;6;
62591;PMS5003;48659;41.622;2.276;2023-07-28T14:49:02;9;9;
62591;PMS5003;48659;41.622;2.276;2023-07-28T14:51:30;9;7;
62591;PMS5003;48659;41.622;2.276;2023-07-28T14:53:59;10;9;
62591;PMS5003;48659;41.622;2.276;2023-07-28T14:56:27;6;6;
62591;PMS5003;48659;41.622;2.276;2023-07-28T14:58:55;10;9;
62591;PMS5003;48659;41.622;2.276;2023-07-28T15:01:22;12;10;
62591;PMS5003;48659;41.622;2.276;2023-07-28T15:03:49;8;8;
62591;PMS5003;48659;41.622;2.276;2023-07-28T15:06:16;7;7;
62591;PMS5003;48659;41.622;2.276;2023-07-28T15:08:44;10;8;
62591;PMS5003;48659;41.622;2.276;2023-07-28T15:11:12;10;10;
62591;PMS5003;48659;41.622;2.276;2023-07-28T15:13:44;14;10;
62591;PMS5003;48659;41.622;2.276;2023-07-28T15:16:12;9;8;
62591;PMS5003;48659;41.622;2.276;2023-07-28T15:18:40;9;9;
62591;PMS5003;48659;41.622;2.276;2023-07-28T15:21:07;8;8;
62591;PMS5003;48659;41.622;2.276;2023-07-28T15:23:36;8;8;
62591;PMS5003;48659;41.622;2.276;2023-07-28T15:26:06;9;8;
62591;PMS5003;48659;41.622;2.276;2023-07-28T15:28:34;8;8;
62591;PMS5003;48659;41.622;2.276;2023-07-28T15:31:02;8;8;
62591;PMS5003;48659;41.622;2.276;2023-07-28T15:33:30;7;7;
62591;PMS5003;48659;41.622;2.276;2023-07-28T15:35:58;8;8;
62591;PMS5003;48659;41.622;2.276;2023-07-28T15:38:26;7;7;
62591;PMS5003;48659;41.622;2.276;2023-07-28T15:40:54;9;9;
62591;PMS5003;48659;41.622;2.276;2023-07-28T15:43:21;7;7;
62591;PMS5003;48659;41.622;2.276;2023-07-28T15:45:50;9;9;
62591;PMS5003;48659;41.622;2.276;2023-07-28T15:48:17;7;7;
62591;PMS5003;48659;41.622;2.276;2023-07-28T15:50:45;7;7;
62591;PMS5003;48659;41.622;2.276;2023-07-28T15:53:13;7;7;
62591;PMS5003;48659;41.622;2.276;2023-07-28T15:55:40;9;8;
62591;PMS5003;48659;41.622;2.276;2023-07-28T15:58:07;12;8;
62591;PMS5003;48659;41.622;2.276;2023-07-28T16:00:35;7;7;
62591;PMS5003;48659;41.622;2.276;2023-07-28T16:03:07;9;9;
62591;PMS5003;48659;41.622;2.276;2023-07-28T16:05:34;9;9;
62591;PMS5003;48659;41.622;2.276;2023-07-28T16:08:06;11;10;
62591;PMS5003;48659;41.622;2.276;2023-07-28T16:10:35;11;9;
62591;PMS5003;48659;41.622;2.276;2023-07-28T16:13:07;8;8;
62591;PMS5003;48659;41.622;2.276;2023-07-28T16:15:35;9;9;
62591;PMS5003;48659;41.622;2.276;2023-07-28T16:18:07;7;7;
62591;PMS5003;48659;41.622;2.276;2023-07-28T16:20:35;11;8;
62591;PMS5003;48659;41.622;2.276;2023-07-28T16:23:03;7;7;
62591;PMS5003;48659;41.622;2.276;2023-07-28T16:25:31;6;6;
62591;PMS5003;48659;41.622;2.276;2023-07-28T16:27:58;6;6;
62591;PMS5003;48659;41.622;2.276;2023-07-28T16:30:26;6;6;
62591;PMS5003;48659;41.622;2.276;2023-07-28T16:32:54;6;6;
62591;PMS5003;48659;41.622;2.276;2023-07-28T16:35:21;10;6;
62591;PMS5003;48659;41.622;2.276;2023-07-28T16:37:49;6;6;
62591;PMS5003;48659;41.622;2.276;2023-07-28T16:40:17;6;6;
62591;PMS5003;48659;41.622;2.276;2023-07-28T16:42:44;9;7;
62591;PMS5003;48659;41.622;2.276;2023-07-28T16:45:12;6;5;
62591;PMS5003;48659;41.622;2.276;2023-07-28T16:47:40;6;6;
62591;PMS5003;48659;41.622;2.276;2023-07-28T16:50:07;7;6;
62591;PMS5003;48659;41.622;2.276;2023-07-28T16:52:35;9;6;
62591;PMS5003;48659;41.622;2.276;2023-07-28T16:55:08;9;7;
62591;PMS5003;48659;41.622;2.276;2023-07-28T16:57:35;7;7;
62591;PMS5003;48659;41.622;2.276;2023-07-28T17:00:03;5;5;
62591;PMS5003;48659;41.622;2.276;2023-07-28T17:02:32;8;8;